New Middleton, Tennessee
Current Conditions -  °F | °C
As of 1:15 PM on Sunday 21 Dec 2014 (Local Time) from KSRB Reporting Station
Clear Clear  
Wind Chill: 54°   Ceiling: Unl
Heat Index: 54°   Visibility: 10mi
Dew Point: 36°   Wind: 6mph
Humidity: 51%   Direction: 220°SW
Pressure: 30.1"   Gusts: NA
Location:  36.1834°N, 86.0199°W
Report Text: KSRB 211915Z AUTO 22005KT 10SM CLR 12/02 A3010 RMK
Loading
Personal Weather Stations






























Interactive Weather Map New forecast layout! Learn more

10-Day Weather Forecast

Advertisements
Track Severe Weather on mobile